Terminal Aerodrome Forecast
Issued by NWS

Home | Current Version | Previous Version | Text Only | Print | Product List | Glossary On
Versions: 1 2 3 4 5 6 7 8 9 10 11 12 13 14 15 16 17 18 19 20 21 22 23
000
FTUS45 KBOI 051140
TAFJER
TAF
KJER 051140Z 0512/0612 20008KT P6SM BKN200
     FM052100 25015KT P6SM FEW080 BKN120
     FM060300 22010KT P6SM BKN120=

USA.gov is the U.S. government's official web portal to all federal, state and local government web resources and services.